sensor_id;sensor_type;location;lat;lon;timestamp;pressure;altitude;pressure_sealevel;temperature;humidity
33422;BME280;19763;55.798;37.782;2023-02-28T00:01:20;145997.97;;;-5.40;77.41
33422;BME280;19763;55.798;37.782;2023-02-28T00:03:46;145984.03;;;-5.46;77.70
33422;BME280;19763;55.798;37.782;2023-02-28T00:06:11;145953.72;;;-5.58;78.64
33422;BME280;19763;55.798;37.782;2023-02-28T00:08:38;145910.72;;;-5.76;79.25
33422;BME280;19763;55.798;37.782;2023-02-28T00:11:10;145963.84;;;-5.54;79.16
33422;BME280;19763;55.798;37.782;2023-02-28T00:13:38;145976.47;;;-5.49;78.63
33422;BME280;19763;55.798;37.782;2023-02-28T00:16:06;145981.53;;;-5.47;78.72
33422;BME280;19763;55.798;37.782;2023-02-28T00:18:33;145980.25;;;-5.47;77.66
33422;BME280;19763;55.798;37.782;2023-02-28T00:20:59;145999.25;;;-5.40;77.19
33422;BME280;19763;55.798;37.782;2023-02-28T00:23:25;145994.16;;;-5.42;77.84
33422;BME280;19763;55.798;37.782;2023-02-28T00:25:51;145979.00;;;-5.48;77.62
33422;BME280;19763;55.798;37.782;2023-02-28T00:28:17;146005.59;;;-5.37;76.47
33422;BME280;19763;55.798;37.782;2023-02-28T00:30:43;145913.22;;;-5.75;76.82
33422;BME280;19763;55.798;37.782;2023-02-28T00:33:09;145986.59;;;-5.45;77.11
33422;BME280;19763;55.798;37.782;2023-02-28T00:35:35;145987.88;;;-5.44;77.59
33422;BME280;19763;55.798;37.782;2023-02-28T00:38:00;145957.50;;;-5.57;77.34
33422;BME280;19763;55.798;37.782;2023-02-28T00:40:26;145977.75;;;-5.48;77.42
33422;BME280;19763;55.798;37.782;2023-02-28T00:42:52;145976.47;;;-5.49;77.49
33422;BME280;19763;55.798;37.782;2023-02-28T00:45:17;145994.16;;;-5.42;78.65
33422;BME280;19763;55.798;37.782;2023-02-28T00:47:44;145973.97;;;-5.50;76.81
33422;BME280;19763;55.798;37.782;2023-02-28T00:50:11;145938.50;;;-5.64;77.66
33422;BME280;19763;55.798;37.782;2023-02-28T00:52:37;145968.88;;;-5.52;78.25
33422;BME280;19763;55.798;37.782;2023-02-28T00:55:03;145973.97;;;-5.50;78.09
33422;BME280;19763;55.798;37.782;2023-02-28T00:57:29;145947.38;;;-5.61;76.51
33422;BME280;19763;55.798;37.782;2023-02-28T00:59:54;145943.59;;;-5.62;77.92
33422;BME280;19763;55.798;37.782;2023-02-28T01:02:21;145941.03;;;-5.63;78.40
33422;BME280;19763;55.798;37.782;2023-02-28T01:04:47;145929.66;;;-5.68;76.98
33422;BME280;19763;55.798;37.782;2023-02-28T01:07:13;145886.69;;;-5.85;78.33
33422;BME280;19763;55.798;37.782;2023-02-28T01:09:40;145919.53;;;-5.72;77.07
33422;BME280;19763;55.798;37.782;2023-02-28T01:12:07;145847.50;;;-6.01;78.74
33422;BME280;19763;55.798;37.782;2023-02-28T01:14:32;145866.44;;;-5.94;77.45
33422;BME280;19763;55.798;37.782;2023-02-28T01:16:59;145853.81;;;-5.99;77.12
33422;BME280;19763;55.798;37.782;2023-02-28T01:19:25;145842.44;;;-6.03;77.33
33422;BME280;19763;55.798;37.782;2023-02-28T01:21:50;145857.63;;;-5.97;78.34
33422;BME280;19763;55.798;37.782;2023-02-28T01:24:16;145827.28;;;-6.10;78.27
33422;BME280;19763;55.798;37.782;2023-02-28T01:26:41;145814.63;;;-6.15;78.54
33422;BME280;19763;55.798;37.782;2023-02-28T01:29:07;145836.13;;;-6.06;78.59
33422;BME280;19763;55.798;37.782;2023-02-28T01:31:33;145794.38;;;-6.23;78.18
33422;BME280;19763;55.798;37.782;2023-02-28T01:33:58;145789.34;;;-6.25;78.43
33422;BME280;19763;55.798;37.782;2023-02-28T01:36:25;145790.59;;;-6.25;77.67
33422;BME280;19763;55.798;37.782;2023-02-28T01:38:51;145734.97;;;-6.47;78.78
33422;BME280;19763;55.798;37.782;2023-02-28T01:41:28;145759.00;;;-6.37;78.48
33422;BME280;19763;55.798;37.782;2023-02-28T01:44:06;145742.56;;;-6.44;79.16
33422;BME280;19763;55.798;37.782;2023-02-28T01:46:34;145718.59;;;-6.54;77.88
33422;BME280;19763;55.798;37.782;2023-02-28T01:49:08;145761.53;;;-6.36;78.52
33422;BME280;19763;55.798;37.782;2023-02-28T01:51:50;145776.69;;;-6.30;79.27
33422;BME280;19763;55.798;37.782;2023-02-28T01:54:23;145753.97;;;-6.39;79.14
33422;BME280;19763;55.798;37.782;2023-02-28T01:56:55;145798.19;;;-6.21;77.66
33422;BME280;19763;55.798;37.782;2023-02-28T01:59:27;145764.09;;;-6.35;77.37
33422;BME280;19763;55.798;37.782;2023-02-28T02:01:55;145762.78;;;-6.36;78.06
33422;BME280;19763;55.798;37.782;2023-02-28T02:04:23;145788.06;;;-6.26;78.45
33422;BME280;19763;55.798;37.782;2023-02-28T02:06:51;145780.50;;;-6.29;77.41
33422;BME280;19763;55.798;37.782;2023-02-28T02:09:17;145779.25;;;-6.29;78.52
33422;BME280;19763;55.798;37.782;2023-02-28T02:11:45;145748.88;;;-6.42;78.64
33422;BME280;19763;55.798;37.782;2023-02-28T02:25:34;145794.38;;;-6.23;78.66
33422;BME280;19763;55.798;37.782;2023-02-28T02:37:12;145742.56;;;-6.44;79.02
33422;BME280;19763;55.798;37.782;2023-02-28T02:45:29;145767.88;;;-6.34;78.14
33422;BME280;19763;55.798;37.782;2023-02-28T02:48:03;145727.41;;;-6.50;78.07
33422;BME280;19763;55.798;37.782;2023-02-28T02:50:36;145728.69;;;-6.50;77.95
33422;BME280;19763;55.798;37.782;2023-02-28T02:53:04;145719.84;;;-6.53;77.89
33422;BME280;19763;55.798;37.782;2023-02-28T02:55:34;145745.09;;;-6.43;78.45
33422;BME280;19763;55.798;37.782;2023-02-28T02:58:03;145796.94;;;-6.22;78.68
33422;BME280;19763;55.798;37.782;2023-02-28T03:00:33;145788.06;;;-6.26;77.71
33422;BME280;19763;55.798;37.782;2023-02-28T03:03:01;145759.00;;;-6.37;77.99
33422;BME280;19763;55.798;37.782;2023-02-28T03:05:35;145756.47;;;-6.38;78.29
33422;BME280;19763;55.798;37.782;2023-02-28T03:08:05;145796.94;;;-6.22;77.80
33422;BME280;19763;55.798;37.782;2023-02-28T03:10:39;145723.63;;;-6.52;78.83
33422;BME280;19763;55.798;37.782;2023-02-28T03:21:25;145788.06;;;-6.26;77.29
33422;BME280;19763;55.798;37.782;2023-02-28T03:24:17;145778.00;;;-6.30;77.89
33422;BME280;19763;55.798;37.782;2023-02-28T03:26:50;145736.28;;;-6.47;77.24
33422;BME280;19763;55.798;37.782;2023-02-28T03:29:35;145774.22;;;-6.31;77.16
33422;BME280;19763;55.798;37.782;2023-02-28T03:32:10;145753.97;;;-6.39;78.45
33422;BME280;19763;55.798;37.782;2023-02-28T03:34:46;145748.88;;;-6.42;77.38
33422;BME280;19763;55.798;37.782;2023-02-28T03:37:19;145760.28;;;-6.37;76.78
33422;BME280;19763;55.798;37.782;2023-02-28T03:39:51;145771.66;;;-6.32;77.49
33422;BME280;19763;55.798;37.782;2023-02-28T03:42:19;145776.69;;;-6.30;77.66
33422;BME280;19763;55.798;37.782;2023-02-28T03:44:48;145801.97;;;-6.20;76.87
33422;BME280;19763;55.798;37.782;2023-02-28T03:47:27;145752.66;;;-6.40;76.71
33422;BME280;19763;55.798;37.782;2023-02-28T03:50:05;145799.47;;;-6.21;76.15
33422;BME280;19763;55.798;37.782;2023-02-28T03:52:35;145798.19;;;-6.21;76.17
33422;BME280;19763;55.798;37.782;2023-02-28T03:55:05;145770.38;;;-6.33;75.75
33422;BME280;19763;55.798;37.782;2023-02-28T04:00:15;145747.63;;;-6.42;76.68
33422;BME280;19763;55.798;37.782;2023-02-28T04:02:44;145789.34;;;-6.25;77.08
33422;BME280;19763;55.798;37.782;2023-02-28T04:05:10;145790.59;;;-6.25;75.74
33422;BME280;19763;55.798;37.782;2023-02-28T04:07:36;145784.28;;;-6.27;75.82
33422;BME280;19763;55.798;37.782;2023-02-28T04:10:03;145761.53;;;-6.36;75.64
33422;BME280;19763;55.798;37.782;2023-02-28T04:12:29;145745.09;;;-6.43;75.91
33422;BME280;19763;55.798;37.782;2023-02-28T04:14:54;145799.47;;;-6.21;76.37
33422;BME280;19763;55.798;37.782;2023-02-28T04:17:20;145757.75;;;-6.38;75.35
33422;BME280;19763;55.798;37.782;2023-02-28T04:19:46;145753.97;;;-6.39;76.23
33422;BME280;19763;55.798;37.782;2023-02-28T04:22:11;145764.09;;;-6.35;76.43
33422;BME280;19763;55.798;37.782;2023-02-28T04:24:37;145779.25;;;-6.29;75.58
33422;BME280;19763;55.798;37.782;2023-02-28T04:27:07;145731.19;;;-6.49;75.31
33422;BME280;19763;55.798;37.782;2023-02-28T04:29:33;145785.56;;;-6.27;75.18
33422;BME280;19763;55.798;37.782;2023-02-28T04:31:59;145781.78;;;-6.28;76.14
33422;BME280;19763;55.798;37.782;2023-02-28T04:34:27;145761.53;;;-6.36;75.04
33422;BME280;19763;55.798;37.782;2023-02-28T04:36:53;145776.69;;;-6.30;73.47
33422;BME280;19763;55.798;37.782;2023-02-28T04:39:24;145788.06;;;-6.26;75.08
33422;BME280;19763;55.798;37.782;2023-02-28T04:41:50;145785.56;;;-6.27;74.59
33422;BME280;19763;55.798;37.782;2023-02-28T04:44:16;145815.88;;;-6.14;74.43
33422;BME280;19763;55.798;37.782;2023-02-28T04:46:42;145826.00;;;-6.10;73.28
33422;BME280;19763;55.798;37.782;2023-02-28T04:49:09;145790.59;;;-6.25;73.57
33422;BME280;19763;55.798;37.782;2023-02-28T04:51:36;145799.47;;;-6.21;72.60
33422;BME280;19763;55.798;37.782;2023-02-28T04:54:01;145796.94;;;-6.22;73.52
33422;BME280;19763;55.798;37.782;2023-02-28T04:56:27;145808.31;;;-6.17;72.29
33422;BME280;19763;55.798;37.782;2023-02-28T04:58:52;145785.56;;;-6.27;73.74
33422;BME280;19763;55.798;37.782;2023-02-28T05:01:28;145815.88;;;-6.14;72.68
33422;BME280;19763;55.798;37.782;2023-02-28T05:03:56;145751.44;;;-6.40;73.57
33422;BME280;19763;55.798;37.782;2023-02-28T05:06:24;145808.31;;;-6.17;72.71
33422;BME280;19763;55.798;37.782;2023-02-28T05:08:51;145837.41;;;-6.05;72.01
33422;BME280;19763;55.798;37.782;2023-02-28T05:11:20;145856.38;;;-5.98;72.69
33422;BME280;19763;55.798;37.782;2023-02-28T05:13:47;145831.09;;;-6.08;70.81
33422;BME280;19763;55.798;37.782;2023-02-28T05:16:13;145829.78;;;-6.09;70.57
33422;BME280;19763;55.798;37.782;2023-02-28T05:18:39;145865.19;;;-5.94;71.54
33422;BME280;19763;55.798;37.782;2023-02-28T05:21:05;145885.38;;;-5.86;70.60
33422;BME280;19763;55.798;37.782;2023-02-28T05:23:30;145857.63;;;-5.97;70.27
33422;BME280;19763;55.798;37.782;2023-02-28T05:25:56;145876.56;;;-5.90;69.36
33422;BME280;19763;55.798;37.782;2023-02-28T05:28:22;145909.41;;;-5.76;70.97
33422;BME280;19763;55.798;37.782;2023-02-28T05:30:48;145901.84;;;-5.79;69.28
33422;BME280;19763;55.798;37.782;2023-02-28T05:33:13;145939.78;;;-5.64;70.25
33422;BME280;19763;55.798;37.782;2023-02-28T05:35:42;145954.97;;;-5.58;68.31
33422;BME280;19763;55.798;37.782;2023-02-28T05:38:08;145972.66;;;-5.50;67.34
33422;BME280;19763;55.798;37.782;2023-02-28T05:40:34;145922.09;;;-5.71;68.12
33422;BME280;19763;55.798;37.782;2023-02-28T05:43:00;145949.91;;;-5.60;66.73
33422;BME280;19763;55.798;37.782;2023-02-28T05:45:26;145946.13;;;-5.61;66.99
33422;BME280;19763;55.798;37.782;2023-02-28T05:47:55;145938.50;;;-5.64;67.44
33422;BME280;19763;55.798;37.782;2023-02-28T05:50:21;145933.47;;;-5.66;65.91
33422;BME280;19763;55.798;37.782;2023-02-28T05:52:50;145982.78;;;-5.46;66.91
33422;BME280;19763;55.798;37.782;2023-02-28T05:55:16;145980.25;;;-5.47;67.82
33422;BME280;19763;55.798;37.782;2023-02-28T05:57:42;145994.16;;;-5.42;66.65
33422;BME280;19763;55.798;37.782;2023-02-28T06:00:08;146030.88;;;-5.27;66.11
33422;BME280;19763;55.798;37.782;2023-02-28T06:02:34;146044.81;;;-5.21;65.32
33422;BME280;19763;55.798;37.782;2023-02-28T06:04:59;146019.50;;;-5.31;65.81
33422;BME280;19763;55.798;37.782;2023-02-28T06:07:25;146027.09;;;-5.28;65.59
33422;BME280;19763;55.798;37.782;2023-02-28T06:09:50;146042.25;;;-5.22;63.67
33422;BME280;19763;55.798;37.782;2023-02-28T06:12:16;146092.91;;;-5.01;64.99
33422;BME280;19763;55.798;37.782;2023-02-28T06:14:42;146103.00;;;-4.97;64.92
33422;BME280;19763;55.798;37.782;2023-02-28T06:17:09;146071.34;;;-5.10;65.22
33422;BME280;19763;55.798;37.782;2023-02-28T06:19:37;146111.88;;;-4.94;64.54
33422;BME280;19763;55.798;37.782;2023-02-28T06:22:04;146116.91;;;-4.92;64.52
33422;BME280;19763;55.798;37.782;2023-02-28T06:24:30;146153.66;;;-4.77;63.75
33422;BME280;19763;55.798;37.782;2023-02-28T06:26:56;146143.53;;;-4.81;63.66
33422;BME280;19763;55.798;37.782;2023-02-28T06:29:24;146144.78;;;-4.80;63.95
33422;BME280;19763;55.798;37.782;2023-02-28T06:31:50;146211.91;;;-4.53;64.64
33422;BME280;19763;55.798;37.782;2023-02-28T06:34:16;146262.53;;;-4.32;65.36
33422;BME280;19763;55.798;37.782;2023-02-28T06:36:42;146229.63;;;-4.46;64.53
33422;BME280;19763;55.798;37.782;2023-02-28T06:39:08;146209.38;;;-4.54;65.00
33422;BME280;19763;55.798;37.782;2023-02-28T06:41:35;146247.34;;;-4.39;65.16
33422;BME280;19763;55.798;37.782;2023-02-28T06:44:14;146249.84;;;-4.38;65.32
33422;BME280;19763;55.798;37.782;2023-02-28T06:46:41;146267.59;;;-4.30;64.53
33422;BME280;19763;55.798;37.782;2023-02-28T06:49:08;146256.19;;;-4.35;65.58
33422;BME280;19763;55.798;37.782;2023-02-28T06:51:35;146241.03;;;-4.41;65.57
33422;BME280;19763;55.798;37.782;2023-02-28T06:54:01;146275.22;;;-4.27;65.93
33422;BME280;19763;55.798;37.782;2023-02-28T06:56:27;146315.72;;;-4.11;65.38
33422;BME280;19763;55.798;37.782;2023-02-28T06:58:52;146308.13;;;-4.14;65.66
33422;BME280;19763;55.798;37.782;2023-02-28T07:01:18;146348.69;;;-3.97;66.65
33422;BME280;19763;55.798;37.782;2023-02-28T07:03:45;146286.63;;;-4.23;66.57
33422;BME280;19763;55.798;37.782;2023-02-28T07:06:11;146339.81;;;-4.01;66.69
33422;BME280;19763;55.798;37.782;2023-02-28T07:08:36;146356.28;;;-3.94;65.88
33422;BME280;19763;55.798;37.782;2023-02-28T07:11:03;146352.50;;;-3.96;66.99
33422;BME280;19763;55.798;37.782;2023-02-28T07:13:29;146386.66;;;-3.82;66.84
33422;BME280;19763;55.798;37.782;2023-02-28T07:15:56;146422.19;;;-3.68;67.79
33422;BME280;19763;55.798;37.782;2023-02-28T07:18:22;146380.38;;;-3.85;68.47
33422;BME280;19763;55.798;37.782;2023-02-28T07:20:47;146404.41;;;-3.75;68.91
33422;BME280;19763;55.798;37.782;2023-02-28T07:23:13;146439.94;;;-3.60;68.29
33422;BME280;19763;55.798;37.782;2023-02-28T07:25:38;146427.22;;;-3.66;68.75
33422;BME280;19763;55.798;37.782;2023-02-28T07:28:04;146439.94;;;-3.60;68.91
33422;BME280;19763;55.798;37.782;2023-02-28T07:30:30;146462.72;;;-3.51;69.37
33422;BME280;19763;55.798;37.782;2023-02-28T07:32:55;146476.66;;;-3.45;69.71
33422;BME280;19763;55.798;37.782;2023-02-28T07:35:22;146514.69;;;-3.30;69.18
33422;BME280;19763;55.798;37.782;2023-02-28T07:37:48;146505.78;;;-3.34;69.80
33422;BME280;19763;55.798;37.782;2023-02-28T07:40:14;146513.44;;;-3.31;69.86
33422;BME280;19763;55.798;37.782;2023-02-28T07:42:41;146504.53;;;-3.34;69.95
33422;BME280;19763;55.798;37.782;2023-02-28T07:45:08;146522.28;;;-3.27;69.55
33422;BME280;19763;55.798;37.782;2023-02-28T07:47:39;146500.75;;;-3.36;70.36
33422;BME280;19763;55.798;37.782;2023-02-28T07:50:07;146550.19;;;-3.16;70.48
33422;BME280;19763;55.798;37.782;2023-02-28T07:52:34;146518.50;;;-3.28;70.61
33422;BME280;19763;55.798;37.782;2023-02-28T07:54:59;146498.19;;;-3.37;71.50
33422;BME280;19763;55.798;37.782;2023-02-28T07:57:25;146533.69;;;-3.22;71.74
33422;BME280;19763;55.798;37.782;2023-02-28T07:59:50;146580.63;;;-3.03;71.41
33422;BME280;19763;55.798;37.782;2023-02-28T08:02:17;146603.41;;;-2.94;70.72
33422;BME280;19763;55.798;37.782;2023-02-28T08:04:43;146605.97;;;-2.93;71.38
33422;BME280;19763;55.798;37.782;2023-02-28T08:07:09;146612.31;;;-2.90;71.28
33422;BME280;19763;55.798;37.782;2023-02-28T08:09:39;146624.97;;;-2.85;71.01
33422;BME280;19763;55.798;37.782;2023-02-28T08:12:06;146637.69;;;-2.80;70.37
33422;BME280;19763;55.798;37.782;2023-02-28T08:14:32;146666.84;;;-2.68;71.37
33422;BME280;19763;55.798;37.782;2023-02-28T08:16:58;146678.28;;;-2.64;70.84
33422;BME280;19763;55.798;37.782;2023-02-28T08:19:23;146661.78;;;-2.70;71.01
33422;BME280;19763;55.798;37.782;2023-02-28T08:21:49;146637.69;;;-2.80;70.72
33422;BME280;19763;55.798;37.782;2023-02-28T08:24:15;146628.78;;;-2.84;71.52
33422;BME280;19763;55.798;37.782;2023-02-28T08:26:40;146663.03;;;-2.70;71.62
33422;BME280;19763;55.798;37.782;2023-02-28T08:29:06;146674.44;;;-2.65;71.27
33422;BME280;19763;55.798;37.782;2023-02-28T08:31:31;146716.28;;;-2.48;71.13
33422;BME280;19763;55.798;37.782;2023-02-28T08:33:57;146668.13;;;-2.68;72.27
33422;BME280;19763;55.798;37.782;2023-02-28T08:36:25;146678.28;;;-2.64;71.40
33422;BME280;19763;55.798;37.782;2023-02-28T08:38:51;146736.59;;;-2.40;71.96
33422;BME280;19763;55.798;37.782;2023-02-28T08:41:17;146697.28;;;-2.56;72.34
33422;BME280;19763;55.798;37.782;2023-02-28T08:43:43;146734.06;;;-2.41;71.85
33422;BME280;19763;55.798;37.782;2023-02-28T08:46:12;146718.84;;;-2.47;73.11
33422;BME280;19763;55.798;37.782;2023-02-28T08:48:37;146684.59;;;-2.61;73.26
33422;BME280;19763;55.798;37.782;2023-02-28T08:51:06;146680.78;;;-2.63;74.20
33422;BME280;19763;55.798;37.782;2023-02-28T08:53:32;146712.50;;;-2.50;74.78
33422;BME280;19763;55.798;37.782;2023-02-28T08:56:13;146565.38;;;-3.09;74.70
33422;BME280;19763;55.798;37.782;2023-02-28T08:58:39;146619.91;;;-2.87;74.63
33422;BME280;19763;55.798;37.782;2023-02-28T09:03:38;146599.63;;;-2.96;74.45
33422;BME280;19763;55.798;37.782;2023-02-28T09:06:04;146609.78;;;-2.91;73.62
33422;BME280;19763;55.798;37.782;2023-02-28T09:08:30;146627.53;;;-2.84;73.79
33422;BME280;19763;55.798;37.782;2023-02-28T09:10:57;146660.47;;;-2.71;73.33
33422;BME280;19763;55.798;37.782;2023-02-28T09:13:24;146669.38;;;-2.67;73.11
33422;BME280;19763;55.798;37.782;2023-02-28T09:15:50;146708.69;;;-2.51;72.87
33422;BME280;19763;55.798;37.782;2023-02-28T09:18:16;146688.38;;;-2.60;73.06
33422;BME280;19763;55.798;37.782;2023-02-28T09:20:43;146716.28;;;-2.48;73.28
33422;BME280;19763;55.798;37.782;2023-02-28T09:23:10;146685.88;;;-2.61;73.56
33422;BME280;19763;55.798;37.782;2023-02-28T09:25:36;146718.84;;;-2.47;74.01
33422;BME280;19763;55.798;37.782;2023-02-28T09:28:03;146772.13;;;-2.26;73.67
33422;BME280;19763;55.798;37.782;2023-02-28T09:30:30;146789.88;;;-2.18;72.26
33422;BME280;19763;55.798;37.782;2023-02-28T09:32:56;146753.13;;;-2.33;73.06
33422;BME280;19763;55.798;37.782;2023-02-28T09:35:22;146787.38;;;-2.19;72.93
33422;BME280;19763;55.798;37.782;2023-02-28T09:37:52;146758.16;;;-2.31;72.70
33422;BME280;19763;55.798;37.782;2023-02-28T09:40:19;146742.97;;;-2.37;73.27
33422;BME280;19763;55.798;37.782;2023-02-28T09:42:48;146722.66;;;-2.46;73.46
33422;BME280;19763;55.798;37.782;2023-02-28T09:47:52;146767.06;;;-2.28;73.20
33422;BME280;19763;55.798;37.782;2023-02-28T09:50:34;146782.28;;;-2.21;72.97
33422;BME280;19763;55.798;37.782;2023-02-28T09:53:05;146725.19;;;-2.45;74.27
33422;BME280;19763;55.798;37.782;2023-02-28T09:55:45;146773.44;;;-2.25;73.76
33422;BME280;19763;55.798;37.782;2023-02-28T09:58:28;146786.09;;;-2.20;74.78
33422;BME280;19763;55.798;37.782;2023-02-28T10:03:56;146800.03;;;-2.14;74.34
33422;BME280;19763;55.798;37.782;2023-02-28T10:06:29;146770.88;;;-2.26;74.36
33422;BME280;19763;55.798;37.782;2023-02-28T10:09:23;146764.53;;;-2.29;74.14
33422;BME280;19763;55.798;37.782;2023-02-28T10:11:54;146789.88;;;-2.18;74.53
33422;BME280;19763;55.798;37.782;2023-02-28T10:14:24;146734.06;;;-2.41;75.04
33422;BME280;19763;55.798;37.782;2023-02-28T10:17:16;146744.22;;;-2.37;74.70
33422;BME280;19763;55.798;37.782;2023-02-28T10:22:18;146801.34;;;-2.14;73.85
33422;BME280;19763;55.798;37.782;2023-02-28T10:24:49;146831.78;;;-2.01;74.49
33422;BME280;19763;55.798;37.782;2023-02-28T10:29:43;146769.63;;;-2.27;74.93
33422;BME280;19763;55.798;37.782;2023-02-28T10:32:14;146795.00;;;-2.16;74.97
33422;BME280;19763;55.798;37.782;2023-02-28T10:34:41;146789.88;;;-2.18;75.64
33422;BME280;19763;55.798;37.782;2023-02-28T10:37:06;146795.00;;;-2.16;75.14
33422;BME280;19763;55.798;37.782;2023-02-28T10:39:43;146773.44;;;-2.25;75.50
33422;BME280;19763;55.798;37.782;2023-02-28T10:42:37;146800.03;;;-2.14;75.84
33422;BME280;19763;55.798;37.782;2023-02-28T10:45:13;146798.78;;;-2.15;75.80
33422;BME280;19763;55.798;37.782;2023-02-28T10:47:57;146844.47;;;-1.96;75.44
33422;BME280;19763;55.798;37.782;2023-02-28T10:50:50;146848.28;;;-1.95;75.32
33422;BME280;19763;55.798;37.782;2023-02-28T10:53:36;146844.47;;;-1.96;74.75
33422;BME280;19763;55.798;37.782;2023-02-28T10:58:55;146824.16;;;-2.04;75.55
33422;BME280;19763;55.798;37.782;2023-02-28T11:03:49;146814.00;;;-2.09;75.81
33422;BME280;19763;55.798;37.782;2023-02-28T11:06:21;146863.50;;;-1.88;75.18
33422;BME280;19763;55.798;37.782;2023-02-28T11:08:53;146749.31;;;-2.35;74.92
33422;BME280;19763;55.798;37.782;2023-02-28T11:11:20;146882.56;;;-1.81;74.68
33422;BME280;19763;55.798;37.782;2023-02-28T11:13:52;146848.28;;;-1.95;73.82
33422;BME280;19763;55.798;37.782;2023-02-28T11:16:19;146886.38;;;-1.79;74.40
33422;BME280;19763;55.798;37.782;2023-02-28T11:18:54;146881.25;;;-1.81;74.46
33422;BME280;19763;55.798;37.782;2023-02-28T11:21:30;146849.53;;;-1.94;75.88
33422;BME280;19763;55.798;37.782;2023-02-28T11:24:05;146858.44;;;-1.91;74.36
33422;BME280;19763;55.798;37.782;2023-02-28T11:26:41;146869.84;;;-1.86;75.49
33422;BME280;19763;55.798;37.782;2023-02-28T11:29:27;146858.44;;;-1.91;76.59
33422;BME280;19763;55.798;37.782;2023-02-28T11:34:31;146930.75;;;-1.61;76.69
33422;BME280;19763;55.798;37.782;2023-02-28T11:36:59;146904.13;;;-1.72;76.70
33422;BME280;19763;55.798;37.782;2023-02-28T11:39:26;146965.06;;;-1.47;76.16
33422;BME280;19763;55.798;37.782;2023-02-28T11:45:18;146975.22;;;-1.43;75.73
33422;BME280;19763;55.798;37.782;2023-02-28T11:55:42;146868.59;;;-1.86;82.20
33422;BME280;19763;55.798;37.782;2023-02-28T12:01:34;146868.59;;;-1.86;82.50
33422;BME280;19763;55.798;37.782;2023-02-28T12:07:16;146913.00;;;-1.68;81.68
33422;BME280;19763;55.798;37.782;2023-02-28T12:12:42;146836.88;;;-1.99;82.42
33422;BME280;19763;55.798;37.782;2023-02-28T12:23:49;146910.50;;;-1.69;81.58
33422;BME280;19763;55.798;37.782;2023-02-28T12:28:50;146877.47;;;-1.83;82.44
33422;BME280;19763;55.798;37.782;2023-02-28T12:31:22;146886.38;;;-1.79;83.54
33422;BME280;19763;55.798;37.782;2023-02-28T12:34:06;146928.25;;;-1.62;82.65
33422;BME280;19763;55.798;37.782;2023-02-28T12:36:33;146916.81;;;-1.67;82.96
33422;BME280;19763;55.798;37.782;2023-02-28T12:42:38;146904.13;;;-1.72;83.74
33422;BME280;19763;55.798;37.782;2023-02-28T12:45:13;146902.84;;;-1.73;83.87
33422;BME280;19763;55.798;37.782;2023-02-28T12:47:42;146882.56;;;-1.81;84.05
33422;BME280;19763;55.798;37.782;2023-02-28T12:50:11;146899.03;;;-1.74;84.45
33422;BME280;19763;55.798;37.782;2023-02-28T12:53:06;146923.16;;;-1.64;83.47
33422;BME280;19763;55.798;37.782;2023-02-28T13:07:08;146956.19;;;-1.51;83.71
33422;BME280;19763;55.798;37.782;2023-02-28T13:09:38;146914.28;;;-1.68;83.48
33422;BME280;19763;55.798;37.782;2023-02-28T13:12:15;146923.16;;;-1.64;83.17
33422;BME280;19763;55.798;37.782;2023-02-28T13:14:42;146935.88;;;-1.59;83.35
33422;BME280;19763;55.798;37.782;2023-02-28T13:19:43;146967.59;;;-1.46;83.44
33422;BME280;19763;55.798;37.782;2023-02-28T13:22:47;146925.72;;;-1.63;84.30
33422;BME280;19763;55.798;37.782;2023-02-28T13:28:09;146940.94;;;-1.57;83.48
33422;BME280;19763;55.798;37.782;2023-02-28T13:33:36;146984.13;;;-1.40;83.45
33422;BME280;19763;55.798;37.782;2023-02-28T13:38:43;146942.22;;;-1.57;83.89
33422;BME280;19763;55.798;37.782;2023-02-28T13:44:21;146949.84;;;-1.53;84.98
33422;BME280;19763;55.798;37.782;2023-02-28T13:54:56;146962.50;;;-1.48;84.07
33422;BME280;19763;55.798;37.782;2023-02-28T14:06:33;146962.50;;;-1.48;85.05
33422;BME280;19763;55.798;37.782;2023-02-28T14:09:27;146976.47;;;-1.43;84.23
33422;BME280;19763;55.798;37.782;2023-02-28T14:11:54;147024.75;;;-1.23;84.73
33422;BME280;19763;55.798;37.782;2023-02-28T14:17:06;147012.06;;;-1.28;83.79
33422;BME280;19763;55.798;37.782;2023-02-28T14:19:36;147043.81;;;-1.15;83.85
33422;BME280;19763;55.798;37.782;2023-02-28T14:22:19;147043.81;;;-1.15;84.01
33422;BME280;19763;55.798;37.782;2023-02-28T14:38:29;147009.53;;;-1.29;86.07
33422;BME280;19763;55.798;37.782;2023-02-28T14:40:58;147020.94;;;-1.25;85.93
33422;BME280;19763;55.798;37.782;2023-02-28T14:43:27;147020.94;;;-1.25;86.38
33422;BME280;19763;55.798;37.782;2023-02-28T14:45:56;147041.28;;;-1.16;86.26
33422;BME280;19763;55.798;37.782;2023-02-28T14:48:23;147003.16;;;-1.32;86.49
33422;BME280;19763;55.798;37.782;2023-02-28T14:50:56;146995.53;;;-1.35;86.60
33422;BME280;19763;55.798;37.782;2023-02-28T14:53:35;147027.28;;;-1.22;85.87
33422;BME280;19763;55.798;37.782;2023-02-28T14:56:01;147046.31;;;-1.14;87.01
33422;BME280;19763;55.798;37.782;2023-02-28T14:58:32;147041.28;;;-1.16;86.15
33422;BME280;19763;55.798;37.782;2023-02-28T15:01:01;147087.00;;;-0.98;86.04
33422;BME280;19763;55.798;37.782;2023-02-28T15:03:38;147031.09;;;-1.20;86.31
33422;BME280;19763;55.798;37.782;2023-02-28T15:06:11;147042.50;;;-1.16;86.24
33422;BME280;19763;55.798;37.782;2023-02-28T15:08:37;147047.63;;;-1.14;86.83
33422;BME280;19763;55.798;37.782;2023-02-28T15:11:08;147076.81;;;-1.02;86.42
33422;BME280;19763;55.798;37.782;2023-02-28T15:16:20;147085.69;;;-0.98;86.62
33422;BME280;19763;55.798;37.782;2023-02-28T15:18:50;147100.97;;;-0.92;86.31
33422;BME280;19763;55.798;37.782;2023-02-28T15:21:23;147076.81;;;-1.02;86.09
33422;BME280;19763;55.798;37.782;2023-02-28T15:23:54;147065.41;;;-1.07;86.37
33422;BME280;19763;55.798;37.782;2023-02-28T15:26:23;147102.22;;;-0.92;86.98